Portada
METAR-TAF:

METAR-TAF

Aeroports :

Aurenja, França

latitud: 44-08N, longitud: 004-50E, altitud: 60 m

Observació

L'informe es va fer fa 22 minuts, a les 14:00 UTC
Vent 5 kt del Sud, variant entre Est/Sud-Est i Sud-Oest
Temperatura 24°C
Humitat 34%
Pressió 1024 hPa
Visibilitat 10 km o més
sense núvols per sota de 1500 mi sense presència de cumulonimbus.

METAR: LFMO 191400Z AUTO 18005KT 120V220 CAVOK 24/07 Q1024 NOSIG

Hora: 16:22 (14:22 UTC)

Pronòstic

L'informe es va fer fa 6 hores i 22 minuts, a les 08:00 UTC
Pronòstic vàlid del 19 a les 09 UTC al 20 a les 09 UTC
Vent 2 kt amb direcció variable
Visibilitat 10 km o més
sense núvols per sota de 1500 mi sense presència de cumulonimbus.
Evolucionant progressivament
l' 19 a les 13 UTC al 19 a les 15 UTC
Vent 10 kt del Sud/Sud-Oest
Evolucionant progressivament
l' 19 a les 20 UTC al 19 a les 22 UTC
Vent 2 kt amb direcció variable

TAF: LFMO 190800Z 1909/2009 VRB02KT CAVOK BECMG 1913/1915 20010KT BECMG 1920/1922 VRB02KT

Observacions i pronòstics meteorològics de més de 4000 aeroports (METAR i TAF).

Les estacions disponibles són els punts grocs i vermells al mapa.

Posi el ratolí al punt desitjat per veure el nom de l'estació.

Feu clic per veure les observacions i els pronòstics meteorològics.

Per canviar el mapa: feu clic els botons verds amb una creu de color negre per apropar; al botó verd amb un guió per allunyar la imatge; o en les fletxes verdes per a mapes adjacents.


METAR-TAF: